Time;durP1;ratioP1;P1;durP2;ratioP2;P2;SDS_P1;SDS_P2;PMS_P1;PMS_P2;Temp;Humidity;BMP_temperature;BMP_pressure;BME280_temperature;BME280_humidity;BME280_pressure;Samples;Min_cycle;Max_cycle;Signal;HPM_P1;HPM_P2
2023/11/27 00:02:06;;;;;;;33.35;16.35;;;;;;;0.35;100.00;100318.91;4968386;28;20524;-75
2023/11/27 00:04:31;;;;;;;30.80;15.68;;;;;;;0.31;100.00;100315.66;4951037;28;20062;-75
2023/11/27 00:06:56;;;;;;;30.85;16.05;;;;;;;0.37;100.00;100340.66;4974569;28;20072;-75
2023/11/27 00:09:22;;;;;;;31.25;17.10;;;;;;;0.34;100.00;100333.81;4968265;28;20039;-75
2023/11/27 00:11:48;;;;;;;30.48;15.88;;;;;;;0.42;100.00;100338.53;4950798;28;20110;-75
2023/11/27 00:14:13;;;;;;;;;;;;;;;0.43;100.00;100339.41;4967623;28;20482;-75
2023/11/27 00:16:39;;;;;;;29.83;16.33;;;;;;;0.44;100.00;100328.75;4968133;28;19981;-75
2023/11/27 00:19:04;;;;;;;36.35;17.05;;;;;;;0.56;100.00;100337.56;4950884;28;20038;-75
2023/11/27 00:21:29;;;;;;;32.42;16.98;;;;;;;0.44;100.00;100310.38;4967853;28;20090;-75
2023/11/27 00:23:54;;;;;;;36.85;18.20;;;;;;;0.50;100.00;100323.09;4968267;28;20502;-74
2023/11/27 00:26:20;;;;;;;33.25;17.92;;;;;;;0.60;100.00;100328.53;4968084;28;20058;-74
2023/11/27 00:28:53;;;;;;;36.47;16.88;;;;;;;0.60;100.00;100321.47;4957525;28;20027;-75
2023/11/27 00:31:19;;;;;;;31.10;16.05;;;;;;;0.23;100.00;100296.97;4967701;28;20039;-75
2023/11/27 00:33:45;;;;;;;43.78;17.50;;;;;;;0.19;100.00;100304.22;4952795;28;20759;-75
2023/11/27 00:36:12;;;;;;;32.05;17.95;;;;;;;0.21;100.00;100311.97;4982810;28;20038;-75
2023/11/27 00:38:38;;;;;;;30.02;16.00;;;;;;;0.31;100.00;100320.09;4969699;28;20077;-75
2023/11/27 00:41:05;;;;;;;36.00;18.77;;;;;;;0.27;100.00;100316.81;4953676;28;20038;-75
2023/11/27 00:43:30;;;;;;;33.15;16.52;;;;;;;0.28;100.00;100312.41;4979320;28;20038;-74
2023/11/27 00:45:55;;;;;;;34.30;18.10;;;;;;;0.41;100.00;100314.06;4971362;28;20038;-75
2023/11/27 00:48:21;;;;;;;36.75;17.73;;;;;;;0.28;100.00;100294.03;4969338;28;20062;-74
2023/11/27 00:50:46;;;;;;;39.55;17.38;;;;;;;0.24;100.00;100296.03;4958053;28;20041;-75
2023/11/27 00:53:11;;;;;;;35.47;18.10;;;;;;;0.30;100.00;100297.38;4982235;28;20042;-75
2023/11/27 00:55:37;;;;;;;32.70;16.75;;;;;;;0.32;100.00;100295.50;4976008;28;20466;-76
2023/11/27 00:58:02;;;;;;;33.42;16.13;;;;;;;0.14;100.00;100292.34;4951314;28;20038;-75
2023/11/27 01:00:27;;;;;;;37.55;18.50;;;;;;;0.30;100.00;100303.47;4968050;28;20029;-75
2023/11/27 01:02:53;;;;;;;34.30;16.73;;;;;;;0.58;100.00;100306.78;4982072;28;20069;-75
2023/11/27 01:05:19;;;;;;;33.35;16.55;;;;;;;0.52;100.00;100301.97;4949807;28;20259;-75
2023/11/27 01:07:44;;;;;;;33.33;17.15;;;;;;;0.71;100.00;100302.34;4973837;28;20101;-75
2023/11/27 01:10:10;;;;;;;37.10;17.48;;;;;;;0.52;100.00;100288.84;4968938;28;20048;-73
2023/11/27 01:12:38;;;;;;;41.33;17.50;;;;;;;0.53;100.00;100285.25;4950793;28;20070;-75
2023/11/27 01:15:06;;;;;;;35.10;16.23;;;;;;;0.43;100.00;100265.84;4969644;28;20026;-76
2023/11/27 01:17:32;;;;;;;39.67;18.60;;;;;;;0.35;100.00;100269.88;4962726;28;20035;-75
2023/11/27 01:19:57;;;;;;;36.13;16.65;;;;;;;0.50;100.00;100283.69;4974276;28;20092;-75
2023/11/27 01:22:23;;;;;;;35.28;15.75;;;;;;;0.68;100.00;100294.69;4961159;28;20049;-75
2023/11/27 01:24:49;;;;;;;32.95;15.38;;;;;;;0.38;100.00;100266.19;4990445;28;20026;-73
2023/11/27 01:27:15;;;;;;;31.60;17.40;;;;;;;0.28;100.00;100279.13;4974464;28;20439;-73
2023/11/27 01:29:40;;;;;;;36.67;16.98;;;;;;;0.50;100.00;100281.06;4966044;28;20047;-73
2023/11/27 01:32:06;;;;;;;31.52;14.38;;;;;;;0.64;100.00;100290.59;4966799;28;20031;-74
2023/11/27 01:34:32;;;;;;;31.88;16.23;;;;;;;0.23;100.00;100249.72;4949414;28;20034;-76
2023/11/27 01:36:58;;;;;;;33.13;15.93;;;;;;;0.27;100.00;100266.94;4949608;28;20030;-76
2023/11/27 01:39:23;;;;;;;37.03;18.52;;;;;;;0.14;100.00;100268.72;4966712;28;20476;-76
2023/11/27 01:41:49;;;;;;;37.08;15.95;;;;;;;0.21;100.00;100272.59;4996682;28;20161;-76
2023/11/27 01:44:15;;;;;;;38.97;16.90;;;;;;;0.21;100.00;100277.84;4967220;28;20117;-72
2023/11/27 01:46:45;;;;;;;38.75;17.67;;;;;;;0.28;100.00;100287.00;4968102;28;20073;-72
2023/11/27 01:49:12;;;;;;;31.98;16.33;;;;;;;0.28;100.00;100288.78;4968118;28;20386;-74
2023/11/27 01:51:39;;;;;;;39.05;17.73;;;;;;;0.28;100.00;100289.63;4959851;28;20429;-75
2023/11/27 01:54:05;;;;;;;35.42;17.15;;;;;;;0.29;100.00;100286.06;4981034;28;20390;-73
2023/11/27 01:56:33;;;;;;;38.67;18.02;;;;;;;0.36;100.00;100284.66;4950873;28;20038;-75
2023/11/27 01:58:59;;;;;;;35.03;16.38;;;;;;;0.27;100.00;100280.06;4948837;28;20019;-75
2023/11/27 02:01:26;;;;;;;44.00;19.52;;;;;;;0.20;100.00;100270.94;4980413;28;20034;-73
2023/11/27 02:03:51;;;;;;;43.83;17.80;;;;;;;0.15;100.00;100273.06;4964862;28;20474;-76
2023/11/27 02:06:17;;;;;;;41.80;18.95;;;;;;;0.13;100.00;100275.78;4980917;28;20101;-75
2023/11/27 02:08:43;;;;;;;46.85;19.65;;;;;;;0.16;100.00;100274.72;4948542;28;20121;-75
2023/11/27 02:11:08;;;;;;;44.42;19.17;;;;;;;0.04;100.00;100259.84;4950917;28;20083;-76
2023/11/27 02:13:34;;;;;;;41.92;17.50;;;;;;;0.24;100.00;100274.19;4948741;28;20125;-76
2023/11/27 02:15:59;;;;;;;49.75;21.08;;;;;;;0.41;100.00;100279.91;4972353;28;20022;-74
2023/11/27 02:18:25;;;;;;;45.38;19.42;;;;;;;0.44;100.00;100275.41;4948499;28;20035;-73
2023/11/27 02:20:50;;;;;;;55.25;20.75;;;;;;;0.18;100.00;100251.81;4948714;28;20113;-75
2023/11/27 02:23:17;;;;;;;51.63;21.67;;;;;;;0.15;100.00;100257.31;4980257;28;20041;-75
2023/11/27 02:25:43;;;;;;;45.88;19.00;;;;;;;0.33;100.00;100282.28;4960579;28;20255;-75
2023/11/27 02:28:08;;;;;;;48.72;20.30;;;;;;;0.38;100.00;100272.28;4951827;28;20042;-76
2023/11/27 02:30:34;;;;;;;54.33;21.10;;;;;;;0.24;100.00;100272.41;4968513;28;20045;-76
2023/11/27 02:33:01;;;;;;;53.78;23.83;;;;;;;0.25;100.00;100268.81;4969548;28;20363;-73
2023/11/27 02:35:26;;;;;;;57.42;20.83;;;;;;;0.31;100.00;100268.41;4967980;28;20409;-76
2023/11/27 02:37:52;;;;;;;53.35;20.33;;;;;;;0.27;100.00;100263.47;4952428;28;20042;-76
2023/11/27 02:40:18;;;;;;;56.38;21.00;;;;;;;0.27;100.00;100266.09;4977130;28;20037;-75
2023/11/27 02:42:43;;;;;;;51.97;21.92;;;;;;;0.26;100.00;100265.25;4968033;28;20043;-75
2023/11/27 02:45:10;;;;;;;53.33;19.50;;;;;;;0.29;100.00;100275.53;4965638;28;20038;-75
2023/11/27 02:47:39;;;;;;;49.75;18.88;;;;;;;0.37;100.00;100267.94;4965447;28;20039;-75
2023/11/27 02:50:05;;;;;;;66.55;22.00;;;;;;;0.33;100.00;100263.88;4959360;28;20026;-75
2023/11/27 02:52:31;;;;;;;52.92;19.02;;;;;;;0.37;100.00;100261.88;4985059;28;20051;-74
2023/11/27 02:54:57;;;;;;;49.10;19.27;;;;;;;0.22;100.00;100247.22;4954298;28;20030;-75
2023/11/27 02:57:23;;;;;;;46.30;19.70;;;;;;;0.28;100.00;100252.00;4970384;28;20093;-76
2023/11/27 02:59:49;;;;;;;49.40;21.20;;;;;;;0.45;100.00;100263.97;4972160;28;20506;-75
2023/11/27 03:02:15;;;;;;;50.25;20.48;;;;;;;0.35;100.00;100255.88;4977773;28;20021;-73
2023/11/27 03:04:42;;;;;;;44.55;19.08;;;;;;;0.23;100.00;100239.22;4963569;28;20041;-76
2023/11/27 03:07:07;;;;;;;;;;;;;;;0.36;100.00;100252.31;4964760;28;20037;-75
2023/11/27 03:09:33;;;;;;;49.78;19.98;;;;;;;0.44;100.00;100242.09;4961927;28;19993;-75
2023/11/27 03:12:01;;;;;;;44.72;19.90;;;;;;;0.50;100.00;100238.22;4987293;28;20093;-75
2023/11/27 03:14:26;;;;;;;45.90;18.58;;;;;;;0.52;100.00;100231.06;4991872;28;20037;-75
2023/11/27 03:16:53;;;;;;;50.80;23.15;;;;;;;0.73;100.00;100239.19;4989501;28;20025;-75
2023/11/27 03:19:19;;;;;;;46.08;19.55;;;;;;;0.47;100.00;100212.13;4966988;28;20044;-76
2023/11/27 03:21:45;;;;;;;43.78;17.80;;;;;;;0.44;100.00;100215.00;4989472;28;20034;-74
2023/11/27 03:24:10;;;;;;;45.60;18.23;;;;;;;0.41;100.00;100210.81;4963836;28;20030;-73
2023/11/27 03:26:35;;;;;;;46.83;19.13;;;;;;;0.46;100.00;100218.34;4966147;28;20035;-74
2023/11/27 03:29:01;;;;;;;50.10;20.35;;;;;;;0.49;100.00;100212.88;4958234;28;20048;-76
2023/11/27 03:31:28;;;;;;;46.60;18.98;;;;;;;0.68;100.00;100215.00;4989726;28;20034;-74
2023/11/27 03:33:53;;;;;;;48.60;20.52;;;;;;;0.48;100.00;100205.97;4972543;28;20018;-76
2023/11/27 03:36:19;;;;;;;49.45;20.58;;;;;;;0.61;100.00;100206.75;4990811;28;20109;-75
2023/11/27 03:38:44;;;;;;;45.33;19.27;;;;;;;0.72;100.00;100205.94;4977080;28;20034;-75
2023/11/27 03:41:20;;;;;;;46.88;18.10;;;;;;;0.77;100.00;100202.06;4966337;28;20052;-74
2023/11/27 03:43:47;;;;;;;49.40;18.92;;;;;;;0.78;100.00;100197.63;5001358;28;20022;-74
2023/11/27 03:46:12;;;;;;;42.25;18.42;;;;;;;0.55;100.00;100178.28;4995093;28;20018;-74
2023/11/27 03:48:38;;;;;;;45.13;18.27;;;;;;;0.48;100.00;100177.91;4981859;28;20510;-76
2023/11/27 03:51:05;;;;;;;44.45;19.85;;;;;;;0.64;100.00;100190.75;4958531;28;20034;-75
2023/11/27 03:53:30;;;;;;;46.05;19.27;;;;;;;0.65;100.00;100197.66;4979200;28;20046;-73
2023/11/27 03:55:55;;;;;;;42.95;17.65;;;;;;;0.80;100.00;100201.81;4980616;28;20026;-75
2023/11/27 03:58:22;;;;;;;40.22;16.67;;;;;;;0.65;100.00;100186.31;4970240;28;20442;-76
2023/11/27 04:00:47;;;;;;;;;;;;;;;0.94;100.00;100207.84;4972186;28;20468;-76
2023/11/27 04:03:12;;;;;;;31.25;14.82;;;;;;;0.69;100.00;100183.38;4958080;28;19953;-74
2023/11/27 04:05:39;;;;;;;30.00;12.77;;;;;;;0.74;100.00;100190.91;4966987;28;20042;-75
2023/11/27 04:08:05;;;;;;;28.42;13.07;;;;;;;0.73;100.00;100190.06;4982190;28;20080;-73
2023/11/27 04:10:30;;;;;;;29.27;13.23;;;;;;;0.90;100.00;100190.63;4974566;28;20642;-76
2023/11/27 04:12:55;;;;;;;28.48;13.10;;;;;;;0.76;100.00;100178.50;4969706;28;20026;-75
2023/11/27 04:15:21;;;;;;;30.00;15.40;;;;;;;0.66;100.00;100173.09;4969789;28;20524;-74
2023/11/27 04:17:47;;;;;;;32.05;12.43;;;;;;;0.78;100.00;100172.19;4969588;28;20406;-76
2023/11/27 04:20:14;;;;;;;29.50;13.20;;;;;;;0.78;100.00;100168.72;4979625;28;20093;-76
2023/11/27 04:22:40;;;;;;;26.27;12.77;;;;;;;0.68;100.00;100171.19;4951245;28;20038;-73
2023/11/27 04:25:06;;;;;;;29.45;12.68;;;;;;;0.59;100.00;100164.00;4940262;28;20572;-74
2023/11/27 04:27:32;;;;;;;26.63;12.30;;;;;;;0.68;100.00;100168.56;4967109;28;20046;-76
2023/11/27 04:29:59;;;;;;;33.90;13.38;;;;;;;0.73;100.00;100166.44;4967087;28;20035;-74
2023/11/27 04:32:24;;;;;;;30.48;12.90;;;;;;;0.76;100.00;100158.31;4967365;28;20133;-74
2023/11/27 04:34:50;;;;;;;29.67;12.07;;;;;;;0.70;100.00;100148.25;4969953;28;20557;-73
2023/11/27 04:37:15;;;;;;;24.25;11.48;;;;;;;0.64;100.00;100143.47;4967464;28;20034;-75
2023/11/27 04:39:44;;;;;;;25.15;12.02;;;;;;;0.84;100.00;100147.22;4982138;28;20065;-75
2023/11/27 04:42:10;;;;;;;28.35;11.73;;;;;;;0.74;100.00;100139.19;4967022;28;20037;-74
2023/11/27 04:44:36;;;;;;;29.48;11.63;;;;;;;0.64;100.00;100132.97;4969060;28;20093;-75
2023/11/27 04:47:01;;;;;;;27.50;12.75;;;;;;;0.76;100.00;100145.16;4955653;28;20430;-76
2023/11/27 04:49:26;;;;;;;26.67;12.68;;;;;;;0.71;100.00;100128.91;4958565;28;20058;-74
2023/11/27 04:51:52;;;;;;;33.10;13.60;;;;;;;0.70;100.00;100127.22;4955472;28;20094;-75
2023/11/27 04:54:17;;;;;;;25.60;11.95;;;;;;;0.50;100.00;100114.75;4957318;28;20290;-76
2023/11/27 04:56:44;;;;;;;23.92;11.35;;;;;;;0.89;100.00;100144.25;4967864;28;20133;-76
2023/11/27 04:59:10;;;;;;;32.90;14.48;;;;;;;0.76;100.00;100137.28;4964178;28;20071;-74
2023/11/27 05:01:38;;;;;;;29.65;12.65;;;;;;;0.62;100.00;100119.09;4983406;28;20034;-75
2023/11/27 05:04:03;;;;;;;29.35;12.52;;;;;;;0.71;100.00;100121.03;4956120;28;20390;-76
2023/11/27 05:06:29;;;;;;;25.77;14.10;;;;;;;0.90;100.00;100122.28;4955500;28;20030;-76
2023/11/27 05:08:54;;;;;;;23.63;11.82;;;;;;;0.70;100.00;100097.50;4972832;28;20209;-74
2023/11/27 05:11:21;;;;;;;27.15;11.45;;;;;;;0.87;100.00;100110.22;4965350;28;20047;-74
2023/11/27 05:13:51;;;;;;;;;;;;;;;0.55;100.00;100086.34;4949869;28;20030;-76
2023/11/27 05:16:17;;;;;;;31.38;12.60;;;;;;;0.49;100.00;100081.53;4949662;28;20388;-75
2023/11/27 05:18:44;;;;;;;36.20;13.68;;;;;;;0.64;100.00;100101.44;4976487;28;20400;-76
2023/11/27 05:21:13;;;;;;;24.17;11.73;;;;;;;0.40;100.00;100081.28;4986000;28;20104;-75
2023/11/27 05:23:43;;;;;;;25.95;12.32;;;;;;;0.62;100.00;100098.06;4967203;28;20120;-75
2023/11/27 05:26:10;;;;;;;25.38;10.43;;;;;;;0.64;100.00;100090.91;4973447;28;20135;-74
2023/11/27 05:28:36;;;;;;;23.63;10.65;;;;;;;0.41;100.00;100074.25;4967077;28;20034;-74
2023/11/27 05:31:01;;;;;;;26.27;11.05;;;;;;;0.37;100.00;100076.25;4981543;28;20038;-76
2023/11/27 05:33:27;;;;;;;28.27;11.15;;;;;;;0.56;100.00;100094.13;4980657;28;20037;-76
2023/11/27 05:35:53;;;;;;;30.38;12.27;;;;;;;0.62;100.00;100085.78;4972614;28;20120;-74
2023/11/27 05:38:18;;;;;;;25.50;11.32;;;;;;;0.41;100.00;100072.44;4949338;28;20023;-76
2023/11/27 05:40:47;;;;;;;27.77;11.77;;;;;;;0.46;100.00;100076.53;4966021;28;20467;-75
2023/11/27 05:43:12;;;;;;;25.23;11.25;;;;;;;0.55;100.00;100086.34;4973742;28;20190;-75
2023/11/27 05:45:38;;;;;;;25.50;11.98;;;;;;;0.31;100.00;100071.47;4977365;28;20149;-76
2023/11/27 05:48:08;;;;;;;24.33;10.02;;;;;;;0.48;100.00;100090.38;4972624;28;20487;-76
2023/11/27 05:50:33;;;;;;;25.02;11.57;;;;;;;0.45;100.00;100078.31;4969519;28;20046;-75
2023/11/27 05:52:59;;;;;;;24.05;10.35;;;;;;;0.63;100.00;100089.22;4967987;28;20026;-75
2023/11/27 05:55:25;;;;;;;24.08;11.48;;;;;;;0.87;100.00;100085.69;4984394;28;20470;-75
2023/11/27 05:57:50;;;;;;;24.60;11.35;;;;;;;0.70;100.00;100056.28;4989074;28;20426;-74
2023/11/27 06:00:16;;;;;;;22.20;10.70;;;;;;;0.85;100.00;100067.44;4972517;28;20133;-76
2023/11/27 06:02:41;;;;;;;26.80;11.48;;;;;;;0.66;100.00;100051.41;4982884;28;20050;-76
2023/11/27 06:05:07;;;;;;;29.00;12.60;;;;;;;0.80;100.00;100066.97;4956429;28;20089;-75
2023/11/27 06:07:35;;;;;;;28.15;10.75;;;;;;;0.36;100.00;100034.34;4976115;28;20027;-74
2023/11/27 06:10:02;;;;;;;20.90;9.65;;;;;;;0.54;100.00;100054.00;4968748;28;20031;-74
2023/11/27 06:12:28;;;;;;;23.55;11.05;;;;;;;0.38;100.00;100043.78;4979541;28;20104;-75
2023/11/27 06:14:54;;;;;;;24.20;10.82;;;;;;;0.58;100.00;100076.44;4984810;28;20490;-76
2023/11/27 06:17:20;;;;;;;26.45;10.90;;;;;;;0.48;100.00;100058.88;4956137;28;20925;-75
2023/11/27 06:19:46;;;;;;;21.85;10.35;;;;;;;0.57;100.00;100079.19;4952487;28;20036;-76
2023/11/27 06:22:11;;;;;;;26.50;10.88;;;;;;;0.53;100.00;100077.75;4977286;28;20026;-75
2023/11/27 06:24:37;;;;;;;25.70;10.13;;;;;;;0.52;100.00;100071.66;4961402;28;20424;-73
2023/11/27 06:27:02;;;;;;;25.92;11.80;;;;;;;0.67;100.00;100080.16;4976499;28;20029;-75
2023/11/27 06:29:28;;;;;;;22.90;11.77;;;;;;;0.65;100.00;100066.31;4987932;28;20129;-75
2023/11/27 06:31:53;;;;;;;21.45;11.07;;;;;;;0.62;100.00;100061.28;4972689;28;20034;-74
2023/11/27 06:34:18;;;;;;;29.35;11.68;;;;;;;0.79;100.00;100063.47;4957339;28;20037;-76
2023/11/27 06:36:44;;;;;;;22.45;10.55;;;;;;;0.87;100.00;100062.91;4987227;28;20367;-75
2023/11/27 06:39:10;;;;;;;30.85;13.07;;;;;;;0.88;100.00;100056.69;4993192;28;20030;-74
2023/11/27 06:44:13;;;;;;;21.33;10.23;;;;;;;0.68;100.00;100034.56;4964578;28;20481;-75
2023/11/27 06:46:39;;;;;;;31.50;12.40;;;;;;;0.55;100.00;100024.13;4980805;28;20448;-75
2023/11/27 06:49:05;;;;;;;25.92;10.00;;;;;;;0.80;100.00;100038.06;4985530;28;20046;-73
2023/11/27 06:51:31;;;;;;;24.05;10.82;;;;;;;0.55;100.00;100012.81;4960953;28;20161;-74
2023/11/27 06:53:56;;;;;;;24.92;10.30;;;;;;;0.66;100.00;100028.59;4982366;28;20031;-75
2023/11/27 06:56:22;;;;;;;29.45;11.07;;;;;;;0.65;100.00;100013.75;4979402;28;20022;-74
2023/11/27 06:58:47;;;;;;;25.00;11.00;;;;;;;0.76;100.00;100026.09;4996395;28;20034;-75
2023/11/27 07:01:12;;;;;;;27.58;11.75;;;;;;;0.75;100.00;100009.50;4979797;28;21183;-74
2023/11/27 07:03:38;;;;;;;23.52;9.68;;;;;;;0.57;100.00;100010.91;4978131;28;20027;-74
2023/11/27 07:06:05;;;;;;;25.08;10.57;;;;;;;0.81;100.00;100019.53;4982906;28;20034;-74
2023/11/27 07:08:31;;;;;;;22.90;10.80;;;;;;;0.95;100.00;100017.63;4991325;28;20050;-73
2023/11/27 07:10:57;;;;;;;25.00;10.20;;;;;;;0.89;100.00;99995.31;4984094;28;20034;-73
2023/11/27 07:13:25;;;;;;;25.33;10.95;;;;;;;0.67;100.00;99980.34;5001429;28;20025;-73
2023/11/27 07:15:50;;;;;;;21.52;9.55;;;;;;;0.68;100.00;99984.66;4998563;28;20057;-72
2023/11/27 07:18:16;;;;;;;23.48;9.05;;;;;;;0.82;100.00;99988.84;5002250;28;20037;-72
2023/11/27 07:20:41;;;;;;;14.85;7.22;;;;;;;0.71;100.00;99963.38;5000967;28;20057;-73
2023/11/27 07:23:10;;;;;;;13.52;6.65;;;;;;;0.84;100.00;99961.50;5008364;28;20049;-72
2023/11/27 07:25:37;;;;;;;16.77;8.80;;;;;;;0.75;100.00;99937.69;4991877;28;20030;-75
2023/11/27 07:28:05;;;;;;;21.60;8.50;;;;;;;0.80;100.00;99930.31;4976414;28;20516;-73
2023/11/27 07:30:31;;;;;;;13.50;6.40;;;;;;;0.95;100.00;99936.16;5003737;28;20050;-73
2023/11/27 07:32:58;;;;;;;19.17;8.18;;;;;;;0.88;100.00;99920.03;4987105;28;20096;-72
2023/11/27 07:35:23;;;;;;;16.13;7.25;;;;;;;0.97;100.00;99935.06;4987503;28;20458;-73
2023/11/27 07:37:49;;;;;;;18.65;8.30;;;;;;;0.96;100.00;99936.03;5000267;28;20140;-73
2023/11/27 07:40:14;;;;;;;17.38;7.60;;;;;;;1.08;100.00;99928.97;4979947;28;20050;-71
2023/11/27 07:42:41;;;;;;;14.98;7.40;;;;;;;1.09;100.00;99916.66;4994276;28;20026;-73
2023/11/27 07:45:09;;;;;;;14.70;6.72;;;;;;;0.86;100.00;99884.31;5000883;28;20045;-73
2023/11/27 07:47:35;;;;;;;16.10;6.90;;;;;;;1.09;100.00;99893.84;4976577;28;20034;-71
2023/11/27 07:50:00;;;;;;;13.35;6.57;;;;;;;1.10;100.00;99877.13;4977705;28;20614;-72
2023/11/27 07:52:27;;;;;;;11.65;6.63;;;;;;;1.03;100.00;99857.50;4981012;28;20664;-72
2023/11/27 07:54:52;;;;;;;15.48;7.70;;;;;;;1.18;100.00;99869.44;4999530;28;20760;-72
2023/11/27 07:57:18;;;;;;;13.73;7.00;;;;;;;0.93;100.00;99844.28;4982183;28;20105;-73
2023/11/27 07:59:43;;;;;;;15.13;6.72;;;;;;;1.25;100.00;99881.13;4970162;28;20125;-73
2023/11/27 08:02:09;;;;;;;11.70;5.82;;;;;;;1.34;100.00;99876.09;4978803;28;20034;-74
2023/11/27 08:04:34;;;;;;;10.38;5.40;;;;;;;1.20;100.00;99848.28;4981341;28;20052;-73
2023/11/27 08:07:00;;;;;;;14.57;5.97;;;;;;;1.17;100.00;99844.13;4983004;28;20125;-74
2023/11/27 08:09:27;;;;;;;12.40;6.97;;;;;;;1.36;100.00;99851.34;4981024;28;20092;-75
2023/11/27 08:11:52;;;;;;;11.63;7.28;;;;;;;1.36;100.00;99846.06;4989642;28;20026;-75
2023/11/27 08:14:18;;;;;;;14.95;6.93;;;;;;;1.50;100.00;99863.38;5001885;28;20485;-75
2023/11/27 08:16:48;;;;;;;14.02;6.15;;;;;;;1.36;100.00;99840.81;4977042;28;20072;-75
2023/11/27 08:19:16;;;;;;;17.40;7.30;;;;;;;1.49;100.00;99877.47;4988253;28;20038;-75
2023/11/27 08:21:43;;;;;;;14.15;6.55;;;;;;;1.47;100.00;99859.19;4988896;28;20061;-76
2023/11/27 08:24:08;;;;;;;14.35;6.63;;;;;;;1.49;100.00;99882.72;4935993;28;20100;-75
2023/11/27 08:26:39;;;;;;;16.08;7.07;;;;;;;1.56;100.00;99883.88;5002906;28;20054;-74
2023/11/27 08:29:08;;;;;;;13.05;6.72;;;;;;;1.47;100.00;99877.59;4978104;28;20096;-73
2023/11/27 08:31:35;;;;;;;13.45;6.68;;;;;;;1.59;100.00;99890.69;4978285;28;20085;-73
2023/11/27 08:34:01;;;;;;;14.02;6.97;;;;;;;1.55;100.00;99878.78;4972715;28;20065;-75
2023/11/27 08:36:27;;;;;;;14.00;7.20;;;;;;;1.52;100.00;99885.09;5005155;28;20030;-75
2023/11/27 08:38:55;;;;;;;16.02;6.65;;;;;;;1.55;100.00;99890.13;4974309;28;20030;-73
2023/11/27 08:41:21;;;;;;;11.25;5.60;;;;;;;1.61;100.00;99886.97;4970678;28;20109;-73
2023/11/27 08:43:46;;;;;;;13.30;6.95;;;;;;;1.71;100.00;99870.44;4987182;28;20117;-75
2023/11/27 08:46:30;;;;;;;12.85;6.25;;;;;;;1.47;100.00;99826.75;4991530;28;20467;-75
2023/11/27 08:49:15;;;;;;;11.98;5.60;;;;;;;1.55;100.00;99858.56;4988154;28;20520;-75
2023/11/27 08:51:59;;;;;;;19.73;7.40;;;;;;;1.49;100.00;99851.16;4990945;28;20599;-74
2023/11/27 08:54:44;;;;;;;11.93;5.63;;;;;;;1.72;100.00;99875.56;4972526;28;20117;-73
2023/11/27 08:57:10;;;;;;;;;;;;;;;1.76;100.00;99874.38;4995988;28;20457;-74
2023/11/27 08:59:36;;;;;;;12.65;7.22;;;;;;;1.65;100.00;99864.72;4973432;28;19960;-73
2023/11/27 09:02:02;;;;;;;;;;;;;;;1.58;100.00;99866.19;4987470;28;20117;-74
2023/11/27 09:04:27;;;;;;;16.98;6.60;;;;;;;1.59;100.00;99874.91;4969929;28;20002;-75
2023/11/27 09:06:52;;;;;;;13.13;6.72;;;;;;;1.63;100.00;99892.13;4982220;28;20022;-75
2023/11/27 09:09:18;;;;;;;11.75;6.47;;;;;;;1.77;100.00;99918.13;4975879;28;20490;-73
2023/11/27 09:11:43;;;;;;;12.05;5.53;;;;;;;1.92;100.00;99915.19;4987983;28;20404;-73
2023/11/27 09:14:08;;;;;;;13.73;6.47;;;;;;;1.80;100.00;99885.44;4995750;28;20049;-75
2023/11/27 09:16:34;;;;;;;13.77;7.78;;;;;;;1.78;100.00;99892.63;4970369;28;20034;-73
2023/11/27 09:18:59;;;;;;;13.77;6.28;;;;;;;1.77;100.00;99889.19;4972980;28;20481;-75
2023/11/27 09:21:24;;;;;;;13.50;6.85;;;;;;;1.73;100.00;99897.44;4978270;28;20079;-74
2023/11/27 09:23:53;;;;;;;14.48;7.13;;;;;;;1.78;100.00;99908.44;4984349;28;20026;-73
2023/11/27 09:26:18;;;;;;;15.27;7.47;;;;;;;1.82;100.00;99915.13;4972299;28;20045;-74
2023/11/27 09:28:44;;;;;;;14.68;7.45;;;;;;;1.75;100.00;99914.78;5003809;28;20046;-74
2023/11/27 09:31:09;;;;;;;18.65;7.50;;;;;;;1.52;100.00;99898.25;4987795;28;20041;-75
2023/11/27 09:33:35;;;;;;;12.90;6.68;;;;;;;1.74;100.00;99934.19;4998582;28;20040;-74
2023/11/27 09:36:01;;;;;;;16.13;7.88;;;;;;;1.78;100.00;99935.63;4987407;28;20693;-75
2023/11/27 09:38:26;;;;;;;13.15;7.15;;;;;;;1.86;100.00;99953.41;4999154;28;20049;-75
2023/11/27 09:40:52;;;;;;;18.30;7.38;;;;;;;1.71;100.00;99950.22;4980495;28;20375;-75
2023/11/27 09:43:18;;;;;;;13.13;7.85;;;;;;;1.84;100.00;99960.56;4977549;28;20053;-73
2023/11/27 09:45:44;;;;;;;15.88;7.55;;;;;;;1.72;100.00;99924.75;4971959;28;20046;-73
2023/11/27 09:48:10;;;;;;;17.13;8.82;;;;;;;1.57;100.00;99911.88;4970060;28;20045;-75
2023/11/27 09:50:36;;;;;;;15.38;7.43;;;;;;;2.43;100.00;100054.88;4970236;28;20142;-75
2023/11/27 09:53:06;;;;;;;16.67;9.13;;;;;;;1.79;100.00;99944.34;4994614;28;20101;-75
2023/11/27 09:55:39;;;;;;;17.23;8.68;;;;;;;1.79;100.00;99915.38;4974431;28;20489;-75
2023/11/27 09:58:06;;;;;;;11.93;6.57;;;;;;;1.79;100.00;99889.88;5005712;28;20080;-74
2023/11/27 10:00:32;;;;;;;12.25;6.82;;;;;;;2.03;100.00;99907.25;4974790;28;20034;-75
2023/11/27 10:03:01;;;;;;;10.15;5.63;;;;;;;1.79;100.00;99858.31;4974456;28;20030;-75
2023/11/27 10:05:27;;;;;;;11.98;6.15;;;;;;;1.60;100.00;99827.44;4998161;28;20055;-74
2023/11/27 10:07:57;;;;;;;11.68;6.28;;;;;;;1.85;100.00;99846.41;4994020;28;20041;-75
2023/11/27 10:10:26;;;;;;;10.35;5.72;;;;;;;1.91;100.00;99843.28;5008002;28;20160;-75
2023/11/27 10:12:57;;;;;;;16.58;5.90;;;;;;;1.87;100.00;99813.78;4988045;28;20037;-75
2023/11/27 10:15:26;;;;;;;10.30;5.57;;;;;;;1.68;100.00;99777.63;5006781;28;20738;-75
2023/11/27 10:17:52;;;;;;;8.02;4.95;;;;;;;1.79;100.00;99783.78;5002102;28;20038;-74
2023/11/27 10:20:21;;;;;;;9.40;6.03;;;;;;;1.95;100.00;99792.06;4983084;28;20702;-73
2023/11/27 10:22:47;;;;;;;10.35;5.07;;;;;;;1.93;100.00;99770.28;4982170;28;20022;-74
2023/11/27 10:25:14;;;;;;;9.70;5.95;;;;;;;1.99;100.00;99746.06;4994501;28;20029;-75
2023/11/27 10:27:46;;;;;;;9.60;5.68;;;;;;;1.87;100.00;99705.00;4981005;28;20495;-73
2023/11/27 10:30:19;;;;;;;10.68;5.00;;;;;;;1.64;100.00;99670.16;4982481;28;20042;-73
2023/11/27 10:32:47;;;;;;;10.27;5.45;;;;;;;1.71;100.00;99678.31;4979503;28;20046;-74
2023/11/27 10:35:15;;;;;;;11.88;5.35;;;;;;;1.95;100.00;99699.91;4991077;28;20918;-73
2023/11/27 10:37:42;;;;;;;11.73;4.88;;;;;;;2.05;100.00;99684.97;4995949;28;20044;-75
2023/11/27 10:40:15;;;;;;;10.40;5.13;;;;;;;1.76;100.00;99608.56;4998533;28;20452;-75
2023/11/27 10:42:47;;;;;;;10.70;4.47;;;;;;;1.75;100.00;99580.56;4976866;28;20057;-75
2023/11/27 10:45:15;;;;;;;10.07;4.70;;;;;;;1.74;100.00;99539.44;4988843;28;20034;-75
2023/11/27 10:47:44;;;;;;;10.60;4.57;;;;;;;1.70;100.00;99503.84;4977711;28;20026;-75
2023/11/27 10:50:12;;;;;;;10.15;4.57;;;;;;;2.11;100.00;99546.72;4966061;28;20041;-75
2023/11/27 10:52:40;;;;;;;10.98;5.03;;;;;;;1.95;100.00;99494.59;4990101;28;20063;-74
2023/11/27 10:55:08;;;;;;;9.40;4.72;;;;;;;2.10;100.00;99495.00;4977945;28;20038;-75
2023/11/27 10:57:36;;;;;;;16.40;4.35;;;;;;;1.83;100.00;99436.00;5012482;28;20214;-72
2023/11/27 11:00:04;;;;;;;9.95;4.50;;;;;;;2.27;100.00;99525.91;4990822;28;20030;-75
2023/11/27 11:02:34;;;;;;;7.95;4.07;;;;;;;2.10;100.00;99464.22;4990916;28;20042;-75
2023/11/27 11:05:03;;;;;;;8.23;3.97;;;;;;;2.19;100.00;99443.31;4982662;28;20369;-75
2023/11/27 11:07:50;;;;;;;8.45;4.05;;;;;;;2.16;100.00;99398.84;4990130;28;20583;-73
2023/11/27 11:10:17;;;;;;;8.82;3.88;;;;;;;1.89;100.00;99322.25;4982140;28;20050;-76
2023/11/27 11:12:45;;;;;;;9.52;3.90;;;;;;;2.07;100.00;99295.19;4997180;28;20034;-76
2023/11/27 11:15:16;;;;;;;6.00;3.45;;;;;;;1.93;100.00;99221.97;4969198;28;20123;-75
2023/11/27 11:17:54;;;;;;;7.30;3.25;;;;;;;2.06;100.00;99198.75;4969114;28;20062;-76